sensor_id;sensor_type;location;lat;lon;timestamp;P1;durP1;ratioP1;P2;durP2;ratioP2
38549;SDS011;24322;52.004;5.948;2022-08-18T00:00:53;32.78;;;23.48;;
38549;SDS011;24322;52.004;5.948;2022-08-18T00:03:18;35.20;;;22.45;;
38549;SDS011;24322;52.004;5.948;2022-08-18T00:05:44;34.40;;;23.05;;
38549;SDS011;24322;52.004;5.948;2022-08-18T00:08:10;29.65;;;21.15;;
38549;SDS011;24322;52.004;5.948;2022-08-18T00:10:36;31.17;;;21.95;;
38549;SDS011;24322;52.004;5.948;2022-08-18T00:13:05;28.08;;;21.63;;
38549;SDS011;24322;52.004;5.948;2022-08-18T00:15:30;32.38;;;21.48;;
38549;SDS011;24322;52.004;5.948;2022-08-18T00:17:56;29.90;;;22.75;;
38549;SDS011;24322;52.004;5.948;2022-08-18T00:20:22;27.58;;;19.55;;
38549;SDS011;24322;52.004;5.948;2022-08-18T00:22:49;27.23;;;18.67;;
38549;SDS011;24322;52.004;5.948;2022-08-18T00:25:16;28.25;;;18.23;;
38549;SDS011;24322;52.004;5.948;2022-08-18T00:27:44;30.27;;;20.48;;
38549;SDS011;24322;52.004;5.948;2022-08-18T00:30:11;29.45;;;21.63;;
38549;SDS011;24322;52.004;5.948;2022-08-18T00:32:43;29.38;;;21.08;;
38549;SDS011;24322;52.004;5.948;2022-08-18T00:35:32;33.58;;;21.38;;
38549;SDS011;24322;52.004;5.948;2022-08-18T00:38:02;29.52;;;20.27;;
38549;SDS011;24322;52.004;5.948;2022-08-18T00:40:38;28.13;;;21.52;;
38549;SDS011;24322;52.004;5.948;2022-08-18T00:43:07;33.63;;;21.77;;
38549;SDS011;24322;52.004;5.948;2022-08-18T00:45:38;33.10;;;23.45;;
38549;SDS011;24322;52.004;5.948;2022-08-18T00:48:07;29.88;;;20.98;;
38549;SDS011;24322;52.004;5.948;2022-08-18T00:55:51;27.73;;;19.98;;
38549;SDS011;24322;52.004;5.948;2022-08-18T00:58:23;24.60;;;18.15;;
38549;SDS011;24322;52.004;5.948;2022-08-18T01:00:56;26.13;;;18.27;;
38549;SDS011;24322;52.004;5.948;2022-08-18T01:03:23;28.23;;;19.30;;
38549;SDS011;24322;52.004;5.948;2022-08-18T01:05:59;29.90;;;19.70;;
38549;SDS011;24322;52.004;5.948;2022-08-18T01:08:28;28.92;;;19.17;;
38549;SDS011;24322;52.004;5.948;2022-08-18T01:10:55;28.63;;;20.58;;
38549;SDS011;24322;52.004;5.948;2022-08-18T01:13:24;27.50;;;19.00;;
38549;SDS011;24322;52.004;5.948;2022-08-18T01:15:53;32.90;;;21.00;;
38549;SDS011;24322;52.004;5.948;2022-08-18T01:18:19;27.67;;;19.50;;
38549;SDS011;24322;52.004;5.948;2022-08-18T01:21:15;24.52;;;17.80;;
38549;SDS011;24322;52.004;5.948;2022-08-18T01:24:04;26.25;;;17.98;;
38549;SDS011;24322;52.004;5.948;2022-08-18T01:26:33;24.88;;;17.85;;
38549;SDS011;24322;52.004;5.948;2022-08-18T01:29:05;24.58;;;16.52;;
38549;SDS011;24322;52.004;5.948;2022-08-18T01:31:40;25.50;;;16.25;;
38549;SDS011;24322;52.004;5.948;2022-08-18T01:34:11;22.33;;;16.33;;
38549;SDS011;24322;52.004;5.948;2022-08-18T01:36:37;25.50;;;18.23;;
38549;SDS011;24322;52.004;5.948;2022-08-18T01:39:09;24.77;;;16.42;;
38549;SDS011;24322;52.004;5.948;2022-08-18T01:41:37;22.98;;;15.27;;
38549;SDS011;24322;52.004;5.948;2022-08-18T01:44:04;24.70;;;15.88;;
38549;SDS011;24322;52.004;5.948;2022-08-18T01:46:33;21.27;;;15.70;;
38549;SDS011;24322;52.004;5.948;2022-08-18T01:48:59;19.00;;;14.10;;
38549;SDS011;24322;52.004;5.948;2022-08-18T01:51:29;19.88;;;12.90;;
38549;SDS011;24322;52.004;5.948;2022-08-18T01:53:56;17.95;;;12.57;;
38549;SDS011;24322;52.004;5.948;2022-08-18T01:56:23;17.63;;;13.13;;
38549;SDS011;24322;52.004;5.948;2022-08-18T01:58:53;16.15;;;11.05;;
38549;SDS011;24322;52.004;5.948;2022-08-18T02:01:20;18.85;;;12.25;;
38549;SDS011;24322;52.004;5.948;2022-08-18T02:03:47;19.10;;;12.57;;
38549;SDS011;24322;52.004;5.948;2022-08-18T02:06:17;16.70;;;11.35;;
38549;SDS011;24322;52.004;5.948;2022-08-18T02:08:43;18.77;;;12.73;;
38549;SDS011;24322;52.004;5.948;2022-08-18T02:11:10;19.27;;;13.73;;
38549;SDS011;24322;52.004;5.948;2022-08-18T02:13:36;22.70;;;14.23;;
38549;SDS011;24322;52.004;5.948;2022-08-18T02:16:03;20.92;;;13.95;;
38549;SDS011;24322;52.004;5.948;2022-08-18T02:18:30;18.52;;;12.30;;
38549;SDS011;24322;52.004;5.948;2022-08-18T02:21:03;20.77;;;14.00;;
38549;SDS011;24322;52.004;5.948;2022-08-18T02:23:32;20.83;;;15.55;;
38549;SDS011;24322;52.004;5.948;2022-08-18T02:25:58;20.92;;;13.95;;
38549;SDS011;24322;52.004;5.948;2022-08-18T02:28:27;19.15;;;13.57;;
38549;SDS011;24322;52.004;5.948;2022-08-18T02:30:52;18.67;;;13.05;;
38549;SDS011;24322;52.004;5.948;2022-08-18T02:33:18;21.30;;;12.30;;
38549;SDS011;24322;52.004;5.948;2022-08-18T02:35:44;18.13;;;12.75;;
38549;SDS011;24322;52.004;5.948;2022-08-18T02:38:18;16.52;;;11.63;;
38549;SDS011;24322;52.004;5.948;2022-08-18T02:40:43;17.77;;;11.82;;
38549;SDS011;24322;52.004;5.948;2022-08-18T02:43:10;16.33;;;11.82;;
38549;SDS011;24322;52.004;5.948;2022-08-18T02:45:37;17.50;;;12.27;;
38549;SDS011;24322;52.004;5.948;2022-08-18T02:48:04;18.15;;;11.35;;
38549;SDS011;24322;52.004;5.948;2022-08-18T02:50:30;18.17;;;11.88;;
38549;SDS011;24322;52.004;5.948;2022-08-18T02:52:55;18.85;;;12.48;;
38549;SDS011;24322;52.004;5.948;2022-08-18T02:55:21;18.60;;;12.38;;
38549;SDS011;24322;52.004;5.948;2022-08-18T02:57:50;17.33;;;12.02;;
38549;SDS011;24322;52.004;5.948;2022-08-18T03:00:17;16.75;;;11.43;;
38549;SDS011;24322;52.004;5.948;2022-08-18T03:02:47;16.80;;;11.85;;
38549;SDS011;24322;52.004;5.948;2022-08-18T03:05:14;19.73;;;12.40;;
38549;SDS011;24322;52.004;5.948;2022-08-18T03:07:40;16.90;;;10.45;;
38549;SDS011;24322;52.004;5.948;2022-08-18T03:10:07;17.77;;;11.00;;
38549;SDS011;24322;52.004;5.948;2022-08-18T03:12:34;19.10;;;11.57;;
38549;SDS011;24322;52.004;5.948;2022-08-18T03:14:59;21.55;;;13.40;;
38549;SDS011;24322;52.004;5.948;2022-08-18T03:17:26;18.42;;;11.48;;
38549;SDS011;24322;52.004;5.948;2022-08-18T03:19:51;17.20;;;11.98;;
38549;SDS011;24322;52.004;5.948;2022-08-18T03:22:17;18.92;;;11.32;;
38549;SDS011;24322;52.004;5.948;2022-08-18T03:24:43;18.10;;;11.02;;
38549;SDS011;24322;52.004;5.948;2022-08-18T03:27:08;17.73;;;10.43;;
38549;SDS011;24322;52.004;5.948;2022-08-18T03:29:34;17.67;;;11.70;;
38549;SDS011;24322;52.004;5.948;2022-08-18T03:32:01;14.65;;;10.00;;
38549;SDS011;24322;52.004;5.948;2022-08-18T03:34:28;16.60;;;10.85;;
38549;SDS011;24322;52.004;5.948;2022-08-18T03:36:54;16.30;;;11.32;;
38549;SDS011;24322;52.004;5.948;2022-08-18T03:39:20;21.05;;;12.35;;
38549;SDS011;24322;52.004;5.948;2022-08-18T03:41:49;15.95;;;10.82;;
38549;SDS011;24322;52.004;5.948;2022-08-18T03:44:20;15.65;;;9.98;;
38549;SDS011;24322;52.004;5.948;2022-08-18T03:46:46;17.35;;;11.63;;
38549;SDS011;24322;52.004;5.948;2022-08-18T03:49:14;17.02;;;10.77;;
38549;SDS011;24322;52.004;5.948;2022-08-18T03:51:41;17.48;;;11.52;;
38549;SDS011;24322;52.004;5.948;2022-08-18T03:54:09;18.80;;;11.65;;
38549;SDS011;24322;52.004;5.948;2022-08-18T03:56:37;15.68;;;10.27;;
38549;SDS011;24322;52.004;5.948;2022-08-18T03:59:05;17.75;;;11.55;;
38549;SDS011;24322;52.004;5.948;2022-08-18T04:01:36;16.40;;;10.63;;
38549;SDS011;24322;52.004;5.948;2022-08-18T04:04:07;19.42;;;10.95;;
38549;SDS011;24322;52.004;5.948;2022-08-18T04:06:36;15.70;;;9.80;;
38549;SDS011;24322;52.004;5.948;2022-08-18T04:09:08;14.65;;;9.73;;
38549;SDS011;24322;52.004;5.948;2022-08-18T04:11:36;17.60;;;12.05;;
38549;SDS011;24322;52.004;5.948;2022-08-18T04:14:04;15.90;;;9.23;;
38549;SDS011;24322;52.004;5.948;2022-08-18T04:16:30;17.35;;;10.63;;
38549;SDS011;24322;52.004;5.948;2022-08-18T04:18:56;15.68;;;10.20;;
38549;SDS011;24322;52.004;5.948;2022-08-18T04:21:26;16.83;;;10.20;;
38549;SDS011;24322;52.004;5.948;2022-08-18T04:23:52;16.52;;;9.85;;
38549;SDS011;24322;52.004;5.948;2022-08-18T04:26:18;18.70;;;11.07;;
38549;SDS011;24322;52.004;5.948;2022-08-18T04:28:44;16.38;;;10.68;;
38549;SDS011;24322;52.004;5.948;2022-08-18T04:31:12;16.95;;;10.20;;
38549;SDS011;24322;52.004;5.948;2022-08-18T04:33:39;16.25;;;10.63;;
38549;SDS011;24322;52.004;5.948;2022-08-18T04:36:06;18.38;;;12.05;;
38549;SDS011;24322;52.004;5.948;2022-08-18T04:38:34;19.15;;;11.52;;
38549;SDS011;24322;52.004;5.948;2022-08-18T04:40:59;16.35;;;9.65;;
38549;SDS011;24322;52.004;5.948;2022-08-18T04:43:25;15.63;;;9.18;;
38549;SDS011;24322;52.004;5.948;2022-08-18T04:45:51;15.02;;;9.68;;
38549;SDS011;24322;52.004;5.948;2022-08-18T04:48:16;14.57;;;9.75;;
38549;SDS011;24322;52.004;5.948;2022-08-18T04:50:42;14.07;;;8.70;;
38549;SDS011;24322;52.004;5.948;2022-08-18T04:53:08;16.58;;;9.15;;
38549;SDS011;24322;52.004;5.948;2022-08-18T04:55:53;17.90;;;10.48;;
38549;SDS011;24322;52.004;5.948;2022-08-18T04:58:21;15.82;;;10.23;;
38549;SDS011;24322;52.004;5.948;2022-08-18T05:00:55;18.77;;;10.68;;
38549;SDS011;24322;52.004;5.948;2022-08-18T05:03:23;17.90;;;10.40;;
38549;SDS011;24322;52.004;5.948;2022-08-18T05:05:50;19.38;;;10.23;;
38549;SDS011;24322;52.004;5.948;2022-08-18T05:08:20;20.38;;;11.98;;
38549;SDS011;24322;52.004;5.948;2022-08-18T05:10:46;16.00;;;9.43;;
38549;SDS011;24322;52.004;5.948;2022-08-18T05:13:12;17.40;;;10.40;;
38549;SDS011;24322;52.004;5.948;2022-08-18T05:15:41;19.40;;;10.75;;
38549;SDS011;24322;52.004;5.948;2022-08-18T05:18:08;17.70;;;11.98;;
38549;SDS011;24322;52.004;5.948;2022-08-18T05:20:35;19.25;;;11.77;;
38549;SDS011;24322;52.004;5.948;2022-08-18T05:23:01;18.17;;;11.13;;
38549;SDS011;24322;52.004;5.948;2022-08-18T05:25:27;18.20;;;11.02;;
38549;SDS011;24322;52.004;5.948;2022-08-18T05:27:53;18.73;;;13.38;;
38549;SDS011;24322;52.004;5.948;2022-08-18T05:30:19;19.42;;;13.98;;
38549;SDS011;24322;52.004;5.948;2022-08-18T05:32:45;21.50;;;13.80;;
38549;SDS011;24322;52.004;5.948;2022-08-18T05:35:23;20.95;;;15.07;;
38549;SDS011;24322;52.004;5.948;2022-08-18T05:38:03;23.52;;;16.85;;
38549;SDS011;24322;52.004;5.948;2022-08-18T05:43:29;19.27;;;12.43;;
38549;SDS011;24322;52.004;5.948;2022-08-18T05:45:55;20.95;;;12.95;;
38549;SDS011;24322;52.004;5.948;2022-08-18T05:48:21;24.00;;;13.45;;
38549;SDS011;24322;52.004;5.948;2022-08-18T05:50:47;19.00;;;13.30;;
38549;SDS011;24322;52.004;5.948;2022-08-18T05:53:14;23.63;;;13.35;;
38549;SDS011;24322;52.004;5.948;2022-08-18T05:58:40;16.15;;;11.25;;
38549;SDS011;24322;52.004;5.948;2022-08-18T06:01:17;17.02;;;11.82;;
38549;SDS011;24322;52.004;5.948;2022-08-18T06:06:40;18.48;;;12.30;;
38549;SDS011;24322;52.004;5.948;2022-08-18T06:11:41;15.93;;;9.93;;
38549;SDS011;24322;52.004;5.948;2022-08-18T06:14:07;17.65;;;11.32;;
38549;SDS011;24322;52.004;5.948;2022-08-18T06:22:42;17.85;;;10.60;;
38549;SDS011;24322;52.004;5.948;2022-08-18T06:28:15;19.17;;;9.98;;
38549;SDS011;24322;52.004;5.948;2022-08-18T06:36:02;14.95;;;8.85;;
38549;SDS011;24322;52.004;5.948;2022-08-18T06:41:15;12.48;;;8.43;;
38549;SDS011;24322;52.004;5.948;2022-08-18T06:43:54;18.55;;;8.75;;
38549;SDS011;24322;52.004;5.948;2022-08-18T06:48:58;14.50;;;8.23;;
38549;SDS011;24322;52.004;5.948;2022-08-18T06:53:59;13.75;;;8.20;;
38549;SDS011;24322;52.004;5.948;2022-08-18T06:59:19;14.15;;;7.78;;
38549;SDS011;24322;52.004;5.948;2022-08-18T07:01:46;11.93;;;6.70;;
38549;SDS011;24322;52.004;5.948;2022-08-18T07:07:31;14.63;;;7.57;;
38549;SDS011;24322;52.004;5.948;2022-08-18T07:10:04;12.52;;;6.93;;
38549;SDS011;24322;52.004;5.948;2022-08-18T07:12:50;13.10;;;6.82;;
38549;SDS011;24322;52.004;5.948;2022-08-18T07:15:17;10.27;;;6.50;;
38549;SDS011;24322;52.004;5.948;2022-08-18T07:17:48;15.15;;;6.88;;
38549;SDS011;24322;52.004;5.948;2022-08-18T07:20:18;10.98;;;6.38;;
38549;SDS011;24322;52.004;5.948;2022-08-18T07:22:56;9.57;;;5.75;;
38549;SDS011;24322;52.004;5.948;2022-08-18T07:25:29;11.48;;;5.90;;
38549;SDS011;24322;52.004;5.948;2022-08-18T07:30:50;12.23;;;6.25;;
38549;SDS011;24322;52.004;5.948;2022-08-18T07:33:18;9.70;;;6.35;;
38549;SDS011;24322;52.004;5.948;2022-08-18T07:35:49;11.20;;;6.63;;
38549;SDS011;24322;52.004;5.948;2022-08-18T07:41:37;9.35;;;5.80;;
38549;SDS011;24322;52.004;5.948;2022-08-18T07:44:05;8.68;;;5.20;;
38549;SDS011;24322;52.004;5.948;2022-08-18T07:46:53;10.70;;;5.35;;
38549;SDS011;24322;52.004;5.948;2022-08-18T07:49:32;10.73;;;5.70;;
38549;SDS011;24322;52.004;5.948;2022-08-18T08:00:20;13.60;;;5.97;;
38549;SDS011;24322;52.004;5.948;2022-08-18T08:05:35;8.20;;;4.38;;
38549;SDS011;24322;52.004;5.948;2022-08-18T08:10:47;8.95;;;4.30;;
38549;SDS011;24322;52.004;5.948;2022-08-18T08:16:09;8.02;;;3.30;;
38549;SDS011;24322;52.004;5.948;2022-08-18T08:21:20;8.48;;;3.63;;
38549;SDS011;24322;52.004;5.948;2022-08-18T08:23:53;7.82;;;3.78;;
38549;SDS011;24322;52.004;5.948;2022-08-18T08:31:29;6.32;;;3.08;;
38549;SDS011;24322;52.004;5.948;2022-08-18T08:37:01;8.02;;;3.47;;
38549;SDS011;24322;52.004;5.948;2022-08-18T08:39:37;6.82;;;3.25;;
38549;SDS011;24322;52.004;5.948;2022-08-18T08:42:19;6.83;;;3.07;;
38549;SDS011;24322;52.004;5.948;2022-08-18T08:44:54;5.53;;;3.25;;
38549;SDS011;24322;52.004;5.948;2022-08-18T08:47:37;5.80;;;3.30;;
38549;SDS011;24322;52.004;5.948;2022-08-18T08:50:16;9.63;;;4.00;;
38549;SDS011;24322;52.004;5.948;2022-08-18T08:55:18;5.07;;;3.05;;
38549;SDS011;24322;52.004;5.948;2022-08-18T08:57:54;6.35;;;2.72;;
38549;SDS011;24322;52.004;5.948;2022-08-18T09:00:40;3.83;;;2.80;;
38549;SDS011;24322;52.004;5.948;2022-08-18T09:06:05;5.55;;;3.17;;
38549;SDS011;24322;52.004;5.948;2022-08-18T09:11:51;7.05;;;3.13;;
38549;SDS011;24322;52.004;5.948;2022-08-18T09:28:20;6.60;;;2.50;;
38549;SDS011;24322;52.004;5.948;2022-08-18T09:38:37;6.13;;;2.47;;
38549;SDS011;24322;52.004;5.948;2022-08-18T09:41:32;7.38;;;2.83;;
38549;SDS011;24322;52.004;5.948;2022-08-18T09:44:10;5.25;;;2.72;;
38549;SDS011;24322;52.004;5.948;2022-08-18T09:51:49;6.80;;;3.97;;
38549;SDS011;24322;52.004;5.948;2022-08-18T09:54:23;8.05;;;3.30;;
38549;SDS011;24322;52.004;5.948;2022-08-18T09:56:56;7.10;;;2.97;;
38549;SDS011;24322;52.004;5.948;2022-08-18T10:23:49;3.63;;;2.70;;
38549;SDS011;24322;52.004;5.948;2022-08-18T10:37:12;6.32;;;3.40;;
38549;SDS011;24322;52.004;5.948;2022-08-18T10:39:53;4.28;;;3.35;;
38549;SDS011;24322;52.004;5.948;2022-08-18T10:42:43;5.40;;;3.15;;
38549;SDS011;24322;52.004;5.948;2022-08-18T10:45:22;5.97;;;3.25;;
38549;SDS011;24322;52.004;5.948;2022-08-18T10:48:24;5.20;;;3.38;;
38549;SDS011;24322;52.004;5.948;2022-08-18T10:55:59;6.43;;;2.70;;
38549;SDS011;24322;52.004;5.948;2022-08-18T11:06:57;5.53;;;2.92;;
38549;SDS011;24322;52.004;5.948;2022-08-18T11:09:28;7.32;;;3.67;;
38549;SDS011;24322;52.004;5.948;2022-08-18T11:11:56;5.35;;;3.30;;
38549;SDS011;24322;52.004;5.948;2022-08-18T11:14:37;5.47;;;3.22;;
38549;SDS011;24322;52.004;5.948;2022-08-18T11:20:12;7.03;;;3.55;;
38549;SDS011;24322;52.004;5.948;2022-08-18T11:22:48;6.97;;;3.28;;
38549;SDS011;24322;52.004;5.948;2022-08-18T11:25:21;5.78;;;3.05;;
38549;SDS011;24322;52.004;5.948;2022-08-18T11:27:55;7.07;;;3.00;;
38549;SDS011;24322;52.004;5.948;2022-08-18T11:30:24;5.30;;;3.00;;
38549;SDS011;24322;52.004;5.948;2022-08-18T11:32:55;6.43;;;3.20;;
38549;SDS011;24322;52.004;5.948;2022-08-18T11:35:25;5.72;;;3.08;;
38549;SDS011;24322;52.004;5.948;2022-08-18T11:38:00;8.32;;;3.75;;
38549;SDS011;24322;52.004;5.948;2022-08-18T11:40:33;6.60;;;3.20;;
38549;SDS011;24322;52.004;5.948;2022-08-18T11:53:15;5.05;;;3.10;;
38549;SDS011;24322;52.004;5.948;2022-08-18T12:04:08;6.20;;;3.40;;
38549;SDS011;24322;52.004;5.948;2022-08-18T12:06:38;5.55;;;3.17;;
38549;SDS011;24322;52.004;5.948;2022-08-18T12:11:59;5.93;;;2.95;;
38549;SDS011;24322;52.004;5.948;2022-08-18T12:14:29;5.15;;;3.28;;
38549;SDS011;24322;52.004;5.948;2022-08-18T12:16:57;7.78;;;3.63;;
38549;SDS011;24322;52.004;5.948;2022-08-18T12:19:23;4.47;;;2.83;;
38549;SDS011;24322;52.004;5.948;2022-08-18T12:21:58;6.35;;;3.15;;
38549;SDS011;24322;52.004;5.948;2022-08-18T12:24:26;4.60;;;2.60;;
38549;SDS011;24322;52.004;5.948;2022-08-18T12:26:53;4.97;;;2.55;;
38549;SDS011;24322;52.004;5.948;2022-08-18T12:29:20;6.65;;;2.50;;
38549;SDS011;24322;52.004;5.948;2022-08-18T12:31:47;5.57;;;2.75;;
38549;SDS011;24322;52.004;5.948;2022-08-18T12:34:17;6.93;;;3.28;;
38549;SDS011;24322;52.004;5.948;2022-08-18T12:36:44;7.28;;;3.55;;
38549;SDS011;24322;52.004;5.948;2022-08-18T12:39:10;5.25;;;3.25;;
38549;SDS011;24322;52.004;5.948;2022-08-18T12:41:36;6.22;;;3.40;;
38549;SDS011;24322;52.004;5.948;2022-08-18T12:44:02;5.03;;;2.92;;
38549;SDS011;24322;52.004;5.948;2022-08-18T12:46:28;4.75;;;2.75;;
38549;SDS011;24322;52.004;5.948;2022-08-18T12:48:54;5.35;;;2.83;;
38549;SDS011;24322;52.004;5.948;2022-08-18T12:51:20;4.50;;;2.83;;
38549;SDS011;24322;52.004;5.948;2022-08-18T12:53:46;5.15;;;2.90;;
38549;SDS011;24322;52.004;5.948;2022-08-18T12:58:57;6.68;;;2.92;;
38549;SDS011;24322;52.004;5.948;2022-08-18T13:01:24;5.00;;;2.83;;
38549;SDS011;24322;52.004;5.948;2022-08-18T13:03:51;5.18;;;2.45;;
38549;SDS011;24322;52.004;5.948;2022-08-18T13:06:19;4.28;;;2.60;;
38549;SDS011;24322;52.004;5.948;2022-08-18T13:08:46;5.88;;;3.00;;
38549;SDS011;24322;52.004;5.948;2022-08-18T13:11:13;4.80;;;3.08;;
38549;SDS011;24322;52.004;5.948;2022-08-18T13:13:39;4.03;;;2.70;;
38549;SDS011;24322;52.004;5.948;2022-08-18T13:16:08;4.55;;;2.72;;
38549;SDS011;24322;52.004;5.948;2022-08-18T13:18:34;5.82;;;3.13;;
38549;SDS011;24322;52.004;5.948;2022-08-18T13:21:01;6.22;;;3.72;;
38549;SDS011;24322;52.004;5.948;2022-08-18T13:23:28;5.47;;;2.85;;
38549;SDS011;24322;52.004;5.948;2022-08-18T13:25:56;8.82;;;3.03;;
38549;SDS011;24322;52.004;5.948;2022-08-18T13:28:23;4.25;;;2.92;;
38549;SDS011;24322;52.004;5.948;2022-08-18T13:30:49;5.15;;;2.80;;
38549;SDS011;24322;52.004;5.948;2022-08-18T13:33:15;4.03;;;2.47;;
38549;SDS011;24322;52.004;5.948;2022-08-18T13:35:45;5.28;;;3.08;;
38549;SDS011;24322;52.004;5.948;2022-08-18T13:38:15;6.07;;;3.00;;
38549;SDS011;24322;52.004;5.948;2022-08-18T13:40:44;3.20;;;2.40;;
38549;SDS011;24322;52.004;5.948;2022-08-18T13:43:17;4.28;;;2.40;;
38549;SDS011;24322;52.004;5.948;2022-08-18T13:45:45;4.90;;;3.15;;
38549;SDS011;24322;52.004;5.948;2022-08-18T13:48:13;5.88;;;3.58;;
38549;SDS011;24322;52.004;5.948;2022-08-18T13:50:39;5.90;;;2.78;;
38549;SDS011;24322;52.004;5.948;2022-08-18T13:53:07;4.72;;;2.72;;
38549;SDS011;24322;52.004;5.948;2022-08-18T13:55:38;4.40;;;2.83;;
38549;SDS011;24322;52.004;5.948;2022-08-18T13:58:04;4.28;;;2.47;;
38549;SDS011;24322;52.004;5.948;2022-08-18T14:00:30;5.40;;;2.80;;
38549;SDS011;24322;52.004;5.948;2022-08-18T14:02:57;6.47;;;3.22;;
38549;SDS011;24322;52.004;5.948;2022-08-18T14:05:25;5.72;;;3.00;;
38549;SDS011;24322;52.004;5.948;2022-08-18T14:07:52;5.72;;;3.10;;
38549;SDS011;24322;52.004;5.948;2022-08-18T14:10:18;5.85;;;3.10;;
38549;SDS011;24322;52.004;5.948;2022-08-18T14:12:44;4.63;;;2.88;;
38549;SDS011;24322;52.004;5.948;2022-08-18T14:15:12;4.55;;;2.97;;
38549;SDS011;24322;52.004;5.948;2022-08-18T14:17:39;4.32;;;2.40;;
38549;SDS011;24322;52.004;5.948;2022-08-18T14:20:06;5.90;;;3.15;;
38549;SDS011;24322;52.004;5.948;2022-08-18T14:22:57;5.28;;;3.00;;
38549;SDS011;24322;52.004;5.948;2022-08-18T14:25:43;6.07;;;3.20;;
38549;SDS011;24322;52.004;5.948;2022-08-18T14:28:27;7.00;;;2.80;;
38549;SDS011;24322;52.004;5.948;2022-08-18T14:30:54;5.72;;;3.00;;
38549;SDS011;24322;52.004;5.948;2022-08-18T14:33:22;7.57;;;3.10;;
38549;SDS011;24322;52.004;5.948;2022-08-18T14:35:49;5.53;;;3.15;;
38549;SDS011;24322;52.004;5.948;2022-08-18T14:38:14;4.47;;;2.80;;
38549;SDS011;24322;52.004;5.948;2022-08-18T14:40:41;3.40;;;2.65;;
38549;SDS011;24322;52.004;5.948;2022-08-18T14:43:08;6.20;;;2.85;;
38549;SDS011;24322;52.004;5.948;2022-08-18T14:45:35;7.72;;;3.25;;
38549;SDS011;24322;52.004;5.948;2022-08-18T14:48:01;4.82;;;2.60;;
38549;SDS011;24322;52.004;5.948;2022-08-18T14:50:28;4.75;;;2.90;;
38549;SDS011;24322;52.004;5.948;2022-08-18T14:52:53;4.78;;;2.60;;
38549;SDS011;24322;52.004;5.948;2022-08-18T14:55:19;4.82;;;2.47;;
38549;SDS011;24322;52.004;5.948;2022-08-18T14:57:45;6.22;;;2.78;;
38549;SDS011;24322;52.004;5.948;2022-08-18T15:00:12;7.50;;;3.47;;
38549;SDS011;24322;52.004;5.948;2022-08-18T15:02:41;4.60;;;2.28;;
38549;SDS011;24322;52.004;5.948;2022-08-18T15:05:09;6.00;;;2.60;;
38549;SDS011;24322;52.004;5.948;2022-08-18T15:07:35;6.70;;;3.10;;
38549;SDS011;24322;52.004;5.948;2022-08-18T15:10:10;5.05;;;2.53;;
38549;SDS011;24322;52.004;5.948;2022-08-18T15:12:37;5.10;;;2.53;;
38549;SDS011;24322;52.004;5.948;2022-08-18T15:15:04;5.82;;;2.47;;
38549;SDS011;24322;52.004;5.948;2022-08-18T15:17:32;3.67;;;2.47;;
38549;SDS011;24322;52.004;5.948;2022-08-18T15:20:02;4.60;;;2.83;;
38549;SDS011;24322;52.004;5.948;2022-08-18T15:22:36;4.47;;;2.47;;
38549;SDS011;24322;52.004;5.948;2022-08-18T15:25:22;4.28;;;2.58;;
38549;SDS011;24322;52.004;5.948;2022-08-18T15:28:06;4.03;;;2.63;;
38549;SDS011;24322;52.004;5.948;2022-08-18T15:30:33;7.50;;;2.75;;
38549;SDS011;24322;52.004;5.948;2022-08-18T15:33:01;6.03;;;3.08;;
38549;SDS011;24322;52.004;5.948;2022-08-18T15:35:28;6.07;;;3.33;;
38549;SDS011;24322;52.004;5.948;2022-08-18T15:37:54;5.47;;;2.78;;
38549;SDS011;24322;52.004;5.948;2022-08-18T15:40:23;5.35;;;2.80;;
38549;SDS011;24322;52.004;5.948;2022-08-18T15:42:54;6.60;;;3.30;;
38549;SDS011;24322;52.004;5.948;2022-08-18T15:45:23;5.13;;;2.67;;
38549;SDS011;24322;52.004;5.948;2022-08-18T15:48:00;5.40;;;3.28;;
38549;SDS011;24322;52.004;5.948;2022-08-18T15:50:26;5.45;;;3.38;;
38549;SDS011;24322;52.004;5.948;2022-08-18T15:55:26;4.30;;;2.58;;
38549;SDS011;24322;52.004;5.948;2022-08-18T15:57:53;3.95;;;2.33;;
38549;SDS011;24322;52.004;5.948;2022-08-18T16:00:21;3.70;;;2.40;;
38549;SDS011;24322;52.004;5.948;2022-08-18T16:02:52;4.50;;;2.40;;
38549;SDS011;24322;52.004;5.948;2022-08-18T16:05:33;6.43;;;2.50;;
38549;SDS011;24322;52.004;5.948;2022-08-18T16:08:02;3.05;;;2.33;;
38549;SDS011;24322;52.004;5.948;2022-08-18T16:10:30;4.80;;;2.38;;
38549;SDS011;24322;52.004;5.948;2022-08-18T16:12:57;5.13;;;2.25;;
38549;SDS011;24322;52.004;5.948;2022-08-18T16:15:25;4.10;;;2.47;;
38549;SDS011;24322;52.004;5.948;2022-08-18T16:17:51;6.63;;;2.78;;
38549;SDS011;24322;52.004;5.948;2022-08-18T16:20:19;5.97;;;2.80;;
38549;SDS011;24322;52.004;5.948;2022-08-18T16:22:48;7.22;;;2.97;;
38549;SDS011;24322;52.004;5.948;2022-08-18T16:25:14;5.90;;;2.85;;
38549;SDS011;24322;52.004;5.948;2022-08-18T16:27:41;4.43;;;1.88;;
38549;SDS011;24322;52.004;5.948;2022-08-18T16:30:08;2.92;;;2.30;;
38549;SDS011;24322;52.004;5.948;2022-08-18T16:32:36;5.22;;;3.03;;
38549;SDS011;24322;52.004;5.948;2022-08-18T16:35:02;4.70;;;2.55;;
38549;SDS011;24322;52.004;5.948;2022-08-18T16:37:29;6.82;;;3.42;;
38549;SDS011;24322;52.004;5.948;2022-08-18T16:39:54;5.50;;;2.95;;
38549;SDS011;24322;52.004;5.948;2022-08-18T16:42:20;5.78;;;2.95;;
38549;SDS011;24322;52.004;5.948;2022-08-18T16:44:46;5.40;;;2.90;;
38549;SDS011;24322;52.004;5.948;2022-08-18T16:47:12;6.75;;;2.90;;
38549;SDS011;24322;52.004;5.948;2022-08-18T16:49:41;5.63;;;2.70;;
38549;SDS011;24322;52.004;5.948;2022-08-18T16:52:08;3.75;;;2.25;;
38549;SDS011;24322;52.004;5.948;2022-08-18T16:54:34;5.10;;;2.35;;
38549;SDS011;24322;52.004;5.948;2022-08-18T16:56:59;4.53;;;2.55;;
38549;SDS011;24322;52.004;5.948;2022-08-18T16:59:25;4.13;;;2.53;;
38549;SDS011;24322;52.004;5.948;2022-08-18T17:02:09;4.47;;;2.28;;
38549;SDS011;24322;52.004;5.948;2022-08-18T17:05:01;4.67;;;2.43;;
38549;SDS011;24322;52.004;5.948;2022-08-18T17:07:31;4.40;;;2.22;;
38549;SDS011;24322;52.004;5.948;2022-08-18T17:09:59;3.72;;;2.40;;
38549;SDS011;24322;52.004;5.948;2022-08-18T17:12:25;5.43;;;2.30;;
38549;SDS011;24322;52.004;5.948;2022-08-18T17:14:52;4.35;;;2.70;;
38549;SDS011;24322;52.004;5.948;2022-08-18T17:17:18;5.38;;;3.10;;
38549;SDS011;24322;52.004;5.948;2022-08-18T17:19:45;4.20;;;2.40;;
38549;SDS011;24322;52.004;5.948;2022-08-18T17:22:11;3.42;;;2.22;;
38549;SDS011;24322;52.004;5.948;2022-08-18T17:24:38;3.83;;;2.20;;
38549;SDS011;24322;52.004;5.948;2022-08-18T17:32:30;5.82;;;2.38;;
38549;SDS011;24322;52.004;5.948;2022-08-18T17:35:03;4.43;;;2.22;;
38549;SDS011;24322;52.004;5.948;2022-08-18T17:37:32;3.53;;;2.20;;
38549;SDS011;24322;52.004;5.948;2022-08-18T17:40:04;4.85;;;2.45;;
38549;SDS011;24322;52.004;5.948;2022-08-18T17:42:39;3.05;;;2.17;;
38549;SDS011;24322;52.004;5.948;2022-08-18T17:45:06;2.83;;;2.15;;
38549;SDS011;24322;52.004;5.948;2022-08-18T17:47:58;4.85;;;2.50;;
38549;SDS011;24322;52.004;5.948;2022-08-18T17:50:40;4.80;;;2.10;;
38549;SDS011;24322;52.004;5.948;2022-08-18T17:53:39;3.10;;;1.73;;
38549;SDS011;24322;52.004;5.948;2022-08-18T17:56:06;4.15;;;2.50;;
38549;SDS011;24322;52.004;5.948;2022-08-18T18:01:20;3.55;;;1.85;;
38549;SDS011;24322;52.004;5.948;2022-08-18T18:03:47;4.07;;;2.05;;
38549;SDS011;24322;52.004;5.948;2022-08-18T18:08:56;3.63;;;1.85;;
38549;SDS011;24322;52.004;5.948;2022-08-18T18:11:25;3.78;;;2.50;;
38549;SDS011;24322;52.004;5.948;2022-08-18T18:13:53;2.90;;;2.08;;